This is the latest recevied weather packets stored in our database for station/object KM8V-8. If no packets are shown the sender has not sent any weather packets the latest 10 day(s).
| Time | Temp. | Humidity | Pressure | Rain* | Wind** | Luminosity | Snow |
|---|---|---|---|---|---|---|---|
| 1777365617 | 14.44° C | 96% | 1006.8 hPa | 0.25 mm | - | 0 W/m² | - |
| 1777365321 | 14.44° C | 96% | 1007 hPa | 0.25 mm | - | 0 W/m² | - |
| 1777365021 | 14.44° C | 96% | 1006.7 hPa | 0.51 mm | - | 0 W/m² | - |
| 1777364718 | 14.44° C | 96% | 1006.8 hPa | 0.51 mm | - | 0 W/m² | - |
| 1777364421 | 15° C | 96% | 1006.8 hPa | 0.51 mm | - | 0 W/m² | - |
| 1777364121 | 15° C | 96% | 1007 hPa | 0.51 mm | - | 0 W/m² | - |
| 1777363821 | 15° C | 96% | 1007.4 hPa | 0.51 mm | - | 0 W/m² | - |
| 1777363521 | 15° C | 96% | 1007.5 hPa | 0.51 mm | - | 0 W/m² | - |
| 1777363226 | 15° C | 96% | 1007.5 hPa | 0.76 mm | - | 0 W/m² | - |
| 1777362918 | 15° C | 95% | 1008.1 hPa | 1.02 mm | - | 0 W/m² | - |
| 1777362618 | 15° C | 95% | 1008.8 hPa | 1.52 mm | - | 0 W/m² | - |
| 1777362318 | 15° C | 95% | 1009.2 hPa | 1.78 mm | - | 0 W/m² | - |
| 1777362018 | 15° C | 94% | 1009.5 hPa | 2.29 mm | - | 0 W/m² | - |
| 1777361718 | 15° C | 94% | 1009.7 hPa | 2.54 mm | - | 0 W/m² | - |
| 1777361419 | 15° C | 93% | 1009.9 hPa | 2.54 mm | - | 0 W/m² | - |
| 1777361118 | 15.56° C | 93% | 1010.1 hPa | 2.54 mm | - | 0 W/m² | - |
| 1777360819 | 15.56° C | 92% | 1010.3 hPa | 2.54 mm | - | 0 W/m² | - |
| 1777360522 | 15.56° C | 92% | 1010.4 hPa | 2.54 mm | - | 0 W/m² | - |
| 1777360221 | 15.56° C | 91% | 1010.6 hPa | 2.54 mm | - | 0 W/m² | - |
| 1777359922 | 16.11° C | 90% | 1010.7 hPa | 2.54 mm | - | 0 W/m² | - |
| 1777359623 | 16.11° C | 88% | 1010.8 hPa | 2.29 mm | - | 0 W/m² | - |
| 1777359323 | 16.67° C | 84% | 1010.8 hPa | 2.03 mm | - | 0 W/m² | - |
| 1777359022 | 17.22° C | 79% | 1010.9 hPa | 1.52 mm | - | 0 W/m² | - |
| 1777358719 | 18.33° C | 72% | 1010.9 hPa | 1.02 mm | - | 0 W/m² | - |
| 1777358423 | 18.89° C | 66% | 1010.7 hPa | 0.51 mm | - | 0 W/m² | - |
* Rain latest hour (hover to see other rain measurements)
** Current wind speed in m/s (hover to see current wind gust speed)